Nearby METAR Reports

 

KCMH - Columbus, Ohio, USA
Distance from station: SW 5mi, 8km
Updated: Sun, 20-Jan-2019 7:51pm EST
Clear
Clear
 Wind from WNW
Wind: WNW 10 mph , 17 km/h
Temperature: 7°F , -14°C
Wind Chill: -7°F , -22°C
Dew Point: -2°F , -19°C
Humidity: 66%
Barometer: 30.28 inHg , 1025.4 hPa
Clouds: Clear
Visibility: 10 miles , 16 km
2019/01/21 00:51 KCMH 210051Z 30009KT 10SM CLR M14/M19 A3028 RMK AO2 SLP270 T11391194
KOSU - Columbus/St Univ, Ohio, USA
Distance from station: W 14mi, 23km
Updated: Sun, 20-Jan-2019 7:53pm EST
Clear
Clear
 Wind from WNW
Wind: WNW 7 mph , 11 km/h
Temperature: 3°F , -16°C
Wind Chill: -9°F , -23°C
Dew Point: -4°F , -20°C
Humidity: 72%
Barometer: 30.28 inHg , 1025.4 hPa
Clouds: Clear
Visibility: 10 miles , 16 km
2019/01/21 00:53 KOSU 210053Z 29006KT 10SM CLR M16/M20 A3028 RMK AO2 SLP273 T11561200
 
KLCK - Rickenbacker Ang, Ohio, USA
Distance from station: SSW 17mi, 27km
Updated: Sun, 20-Jan-2019 8:15pm EST
Clear
Clear
 Wind from WNW
Wind: WNW 7 mph , 11 km/h
Temperature: 7°F , -14°C
Wind Chill: -5°F , -21°C
Dew Point: -4°F , -20°C
Humidity: 61%
Barometer: 30.30 inHg , 1026.1 hPa
Clouds: Clear
Visibility: 10 miles , 16 km
2019/01/21 01:15 KLCK 210115Z AUTO 30006KT 10SM CLR M14/M20 A3030 RMK AO2 T11401198
KVTA - Newark, Ohio, USA
Distance from station: E 19mi, 30km
Updated: Sun, 20-Jan-2019 7:54pm EST
Clear
Clear
 Wind from WNW
Wind: WNW 9 mph , 15 km/h
Temperature: 7°F , -14°C
Wind Chill: -6°F , -21°C
Dew Point: -2°F , -19°C
Humidity: 66%
Barometer: 30.25 inHg , 1024.4 hPa
Clouds: Clear
Visibility: 10 miles , 16 km
2019/01/21 00:54 KVTA 210054Z AUTO 29008KT 10SM CLR M14/M19 A3025 RMK AO2 SLP262 T11391194
 
KTZR - Columbus/Bolton, Ohio, USA
Distance from station: WSW 20mi, 31km
Updated: Sun, 20-Jan-2019 8:15pm EST
Clear
Clear
 Wind from WNW
Wind: WNW 5 mph , 7 km/h
Temperature: 5°F , -15°C
Wind Chill: -5°F , -21°C
Dew Point: -2°F , -19°C
Humidity: 72%
Barometer: 30.29 inHg , 1025.7 hPa
Clouds: Clear
Visibility: 10 miles , 16 km
2019/01/21 01:15 KTZR 210115Z AUTO 29004KT 10SM CLR M15/M19 A3029 RMK AO2 T11521195
KLHQ - Lancaster, Ohio, USA
Distance from station: SSE 22mi, 36km
Updated: Sun, 20-Jan-2019 7:53pm EST
Clear
Clear
 Wind from WNW
Wind: WNW 7 mph , 11 km/h
Temperature: 7°F , -14°C
Wind Chill: -5°F , -21°C
Dew Point: -2°F , -19°C
Humidity: 66%
Barometer: 30.28 inHg , 1025.4 hPa
Clouds: Clear
Visibility: 10 miles , 16 km
2019/01/21 00:53 KLHQ 210053Z AUTO 30006KT 10SM CLR M14/M19 A3028 RMK AO2 SLP270 T11441194
 
KDLZ - Delaware, Ohio, USA
Distance from station: NW 23mi, 36km
Updated: Sun, 20-Jan-2019 8:15pm EST
Mostly cloudy
Mostly cloudy
 Wind from WNW
Wind: WNW 5 mph , 7 km/h
Temperature: 3°F , -16°C
Wind Chill: -7°F , -22°C
Dew Point: -4°F , -20°C
Humidity: 72%
Barometer: 30.28 inHg , 1025.4 hPa
Clouds: Mostly cloudy
Visibility: 10 miles , 16 km
Cloud details: Mostly cloudy 10000 ft
2019/01/21 01:15 KDLZ 210115Z AUTO 30004KT 10SM BKN100 M16/M20 A3028 RMK AO2
K4I3 - Mt Vernon/Knox, Ohio, USA
Distance from station: NE 25mi, 40km
Updated: Sun, 20-Jan-2019 8:16pm EST
Partly cloudy
Partly cloudy
 Wind from W
Wind: W 3 mph , 6 km/h
Temperature: 3°F , -16°C
Dew Point: -2°F , -19°C
Humidity: 78%
Barometer: 30.24 inHg , 1024 hPa
Clouds: Partly cloudy
Visibility: 10 miles , 16 km
Cloud details: Partly cloudy 3800 ft
2019/01/21 01:16 K4I3 210116Z AUTO 28003KT 10SM SCT038 M16/M19 A3024 RMK AO2
 
KMRT - Marysville, Ohio, USA
Distance from station: WNW 30mi, 49km
Updated: Sun, 20-Jan-2019 8:16pm EST
Clear
Clear
 Wind from NW
Wind: NW 3 mph , 6 km/h
Temperature: 5°F , -15°C
Dew Point: -4°F , -20°C
Humidity: 66%
Barometer: 30.28 inHg , 1025.4 hPa
Clouds: Clear
Visibility: 10 miles , 16 km
2019/01/21 01:16 KMRT 210116Z AUTO 31003KT 10SM CLR M15/M20 A3028 RMK AO2 T11551196
KMNN - Marion, Ohio, USA
Distance from station: NNW 41mi, 67km
Updated: Sun, 20-Jan-2019 7:53pm EST
Clear
Clear
 Wind from NW
Wind: NW 8 mph , 13 km/h
Temperature: 1°F , -17°C
Wind Chill: -13°F , -25°C
Dew Point: -9°F , -23°C
Humidity: 60%
Barometer: 30.26 inHg , 1024.7 hPa
Clouds: Clear
Visibility: 10 miles , 16 km
2019/01/21 00:53 KMNN 210053Z AUTO 31007KT 10SM CLR M17/M23 A3026 RMK AO2 SLP274 T11721233
 
KZZV - Zanesville, Ohio, USA
Distance from station: E 49mi, 79km
Updated: Sun, 20-Jan-2019 7:53pm EST
Clear
Clear
 Wind from WNW
Wind: WNW 10 mph , 17 km/h
Temperature: 7°F , -14°C
Wind Chill: -7°F , -22°C
Dew Point: -0°F , -18°C
Humidity: 72%
Barometer: 30.23 inHg , 1023.7 hPa
Clouds: Clear
Visibility: 10 miles , 16 km
2019/01/21 00:53 KZZV 210053Z AUTO 30009KT 10SM CLR M14/M18 A3023 RMK AO2 UPE14B36E44 SLP253 P0000 T11391183 $